createdAt,value
2022-12-11T00:00:49.895Z,3.60
2022-12-11T00:03:18.170Z,3.27
2022-12-11T00:05:45.793Z,4.03
2022-12-11T00:08:13.104Z,3.50
2022-12-11T00:10:39.728Z,3.27
2022-12-11T00:13:06.349Z,3.97
2022-12-11T00:15:32.926Z,3.73
2022-12-11T00:17:59.445Z,3.53
2022-12-11T00:20:25.966Z,3.90
2022-12-11T00:22:52.475Z,3.30
2022-12-11T00:25:19.030Z,3.60
2022-12-11T00:27:47.135Z,4.03
2022-12-11T00:30:14.732Z,3.87
2022-12-11T00:32:41.496Z,3.37
2022-12-11T00:35:08.749Z,3.73
2022-12-11T00:37:35.665Z,4.30
2022-12-11T00:40:02.284Z,3.47
2022-12-11T00:42:28.890Z,4.23
2022-12-11T00:44:56.307Z,3.70
2022-12-11T00:47:22.842Z,3.73
2022-12-11T00:49:50.120Z,3.90
2022-12-11T00:52:17.830Z,3.80
2022-12-11T00:54:44.789Z,4.10
2022-12-11T00:57:11.333Z,3.83
2022-12-11T00:59:37.989Z,3.73
2022-12-11T01:02:04.589Z,3.60
2022-12-11T01:04:31.187Z,3.83
2022-12-11T01:06:57.860Z,4.07
2022-12-11T01:09:43.161Z,4.10
2022-12-11T01:12:09.826Z,4.10
2022-12-11T01:14:36.432Z,4.10
2022-12-11T01:17:03.007Z,4.00
2022-12-11T01:19:29.709Z,4.10
2022-12-11T01:21:56.297Z,4.17
2022-12-11T01:24:22.911Z,3.83
2022-12-11T01:26:49.452Z,4.13
2022-12-11T01:29:16.038Z,3.80
2022-12-11T01:31:42.582Z,3.53
2022-12-11T01:34:09.097Z,3.90
2022-12-11T01:36:35.733Z,3.83
2022-12-11T01:39:02.263Z,4.90
2022-12-11T01:41:28.806Z,4.13
2022-12-11T01:44:00.905Z,3.90
2022-12-11T01:46:29.254Z,4.00
2022-12-11T01:48:56.107Z,4.20
2022-12-11T01:51:23.613Z,3.77
2022-12-11T01:54:01.701Z,4.47
2022-12-11T01:56:32.579Z,4.03
2022-12-11T01:59:02.850Z,4.53
2022-12-11T02:01:43.405Z,4.10
2022-12-11T02:04:11.118Z,4.30
2022-12-11T02:06:42.542Z,3.77
2022-12-11T02:09:15.364Z,3.77
2022-12-11T02:11:56.929Z,4.00
2022-12-11T02:14:48.031Z,3.87
2022-12-11T02:17:33.832Z,4.17
2022-12-11T02:20:27.497Z,4.27
2022-12-11T02:23:02.823Z,3.80
2022-12-11T02:25:54.373Z,4.27
2022-12-11T02:28:36.225Z,4.30
2022-12-11T02:31:16.307Z,3.87
2022-12-11T02:33:53.800Z,3.97
2022-12-11T02:36:24.252Z,4.40
2022-12-11T02:38:53.346Z,4.23
2022-12-11T02:41:21.944Z,4.60
2022-12-11T02:43:50.377Z,4.27
2022-12-11T02:46:18.936Z,4.23
2022-12-11T02:48:48.586Z,4.43
2022-12-11T02:51:18.284Z,4.37
2022-12-11T02:53:46.663Z,3.80
2022-12-11T02:56:24.059Z,4.07
2022-12-11T02:58:58.861Z,4.23
2022-12-11T03:01:26.363Z,3.87
2022-12-11T03:03:54.208Z,4.50
2022-12-11T03:06:25.341Z,4.40
2022-12-11T03:08:51.914Z,4.27
2022-12-11T03:11:18.481Z,4.40
2022-12-11T03:13:45.481Z,4.80
2022-12-11T03:16:32.232Z,4.20
2022-12-11T03:19:20.237Z,4.33
2022-12-11T03:21:54.701Z,4.60
2022-12-11T03:24:35.666Z,4.93
2022-12-11T03:27:15.406Z,4.13
2022-12-11T03:29:51.323Z,3.90
2022-12-11T03:32:25.509Z,3.93
2022-12-11T03:35:05.717Z,4.13
2022-12-11T03:37:37.141Z,3.93
2022-12-11T03:40:13.071Z,4.30
2022-12-11T03:42:41.892Z,3.77
2022-12-11T03:45:09.531Z,3.93
2022-12-11T03:47:39.285Z,3.97
2022-12-11T03:50:09.065Z,4.77
2022-12-11T03:52:42.417Z,4.10
2022-12-11T03:55:15.714Z,4.27
2022-12-11T03:57:42.393Z,4.90
2022-12-11T04:00:12.888Z,4.47
2022-12-11T04:02:40.306Z,3.73
2022-12-11T04:05:07.697Z,4.50
2022-12-11T04:07:34.569Z,4.57
2022-12-11T04:10:01.282Z,4.53
2022-12-11T04:12:27.854Z,4.67
2022-12-11T04:15:03.300Z,3.90
2022-12-11T04:17:54.031Z,4.57
2022-12-11T04:20:40.174Z,4.53
2022-12-11T04:23:31.676Z,4.00
2022-12-11T04:26:16.915Z,4.03
2022-12-11T04:28:44.916Z,4.27
2022-12-11T04:31:17.078Z,4.50
2022-12-11T04:33:43.998Z,4.50
2022-12-11T04:36:11.908Z,4.20
2022-12-11T04:38:38.486Z,4.30
2022-12-11T04:41:07.958Z,4.07
2022-12-11T04:43:35.039Z,4.43
2022-12-11T04:46:02.837Z,4.13
2022-12-11T04:48:29.555Z,4.50
2022-12-11T04:50:56.095Z,4.10
2022-12-11T04:53:22.605Z,4.13
2022-12-11T04:55:49.199Z,4.50
2022-12-11T04:58:15.861Z,3.97
2022-12-11T05:00:42.482Z,3.87
2022-12-11T05:03:09.234Z,3.90
2022-12-11T05:05:35.896Z,3.80
2022-12-11T05:08:02.472Z,3.87
2022-12-11T05:10:29.125Z,4.30
2022-12-11T05:12:55.658Z,4.57
2022-12-11T05:15:22.197Z,4.00
2022-12-11T05:17:48.760Z,3.80
2022-12-11T05:20:15.359Z,4.20
2022-12-11T05:22:41.898Z,4.53
2022-12-11T05:25:09.115Z,4.67
2022-12-11T05:27:36.017Z,4.10
2022-12-11T05:30:02.635Z,4.17
2022-12-11T05:32:29.183Z,4.20
2022-12-11T05:34:55.775Z,4.13
2022-12-11T05:37:22.358Z,4.43
2022-12-11T05:39:48.939Z,3.93
2022-12-11T05:42:15.479Z,4.17
2022-12-11T05:44:42.062Z,3.93
2022-12-11T05:47:08.880Z,4.20
2022-12-11T05:49:35.459Z,3.97
2022-12-11T05:52:02.006Z,4.47
2022-12-11T05:54:28.506Z,4.47
2022-12-11T05:56:54.994Z,4.10
2022-12-11T05:59:21.550Z,4.00
2022-12-11T06:01:48.156Z,4.40
2022-12-11T06:04:14.894Z,4.20
2022-12-11T06:06:43.665Z,4.03
2022-12-11T06:09:14.155Z,3.83
2022-12-11T06:11:41.299Z,4.60
2022-12-11T06:14:07.869Z,5.00
2022-12-11T06:16:34.494Z,4.00
2022-12-11T06:19:01.109Z,4.37
2022-12-11T06:21:32.795Z,4.43
2022-12-11T06:24:01.936Z,4.00
2022-12-11T06:26:28.947Z,4.23
2022-12-11T06:28:55.524Z,4.00
2022-12-11T06:31:22.235Z,4.00
2022-12-11T06:33:48.906Z,4.40
2022-12-11T06:36:17.889Z,4.17
2022-12-11T06:38:45.029Z,4.10
2022-12-11T06:41:12.345Z,4.07
2022-12-11T06:43:40.501Z,3.97
2022-12-11T06:46:09.178Z,4.87
2022-12-11T06:48:36.042Z,3.97
2022-12-11T06:51:08.107Z,3.63
2022-12-11T06:53:35.124Z,3.60
2022-12-11T06:56:06.774Z,4.23
2022-12-11T06:58:36.038Z,4.00
2022-12-11T07:01:04.217Z,4.40
2022-12-11T07:03:30.828Z,5.50
2022-12-11T07:06:02.199Z,4.53
2022-12-11T07:08:29.153Z,4.43
2022-12-11T07:10:55.772Z,3.83
2022-12-11T07:13:22.425Z,4.60
2022-12-11T07:15:49.048Z,4.37
2022-12-11T07:18:15.580Z,4.30
2022-12-11T07:20:42.113Z,4.73
2022-12-11T07:23:08.977Z,4.10
2022-12-11T07:25:37.329Z,4.30
2022-12-11T07:28:03.942Z,4.90
2022-12-11T07:30:30.521Z,4.40
2022-12-11T07:32:57.171Z,4.37
2022-12-11T07:35:23.795Z,4.27
2022-12-11T07:37:50.848Z,4.03
2022-12-11T07:40:17.544Z,4.00
2022-12-11T07:42:46.284Z,4.63
2022-12-11T07:45:13.355Z,3.97
2022-12-11T07:47:40.137Z,3.93
2022-12-11T07:50:07.049Z,4.70
2022-12-11T07:52:34.369Z,4.23
2022-12-11T07:55:01.149Z,3.93
2022-12-11T07:57:28.601Z,4.60
2022-12-11T07:59:55.409Z,4.73
2022-12-11T08:02:22.102Z,4.17
2022-12-11T08:04:49.902Z,4.53
2022-12-11T08:07:16.415Z,4.97
2022-12-11T08:09:43.007Z,4.20
2022-12-11T08:12:09.624Z,3.87
2022-12-11T08:14:36.303Z,4.10
2022-12-11T08:17:02.900Z,4.67
2022-12-11T08:19:29.604Z,4.50
2022-12-11T08:21:56.167Z,4.27
2022-12-11T08:24:22.720Z,4.80
2022-12-11T08:26:49.323Z,4.70
2022-12-11T08:29:15.987Z,4.23
2022-12-11T08:31:42.602Z,4.60
2022-12-11T08:34:09.175Z,4.63
2022-12-11T08:36:35.761Z,4.57
2022-12-11T08:39:02.324Z,4.53
2022-12-11T08:41:30.418Z,4.87
2022-12-11T08:43:58.536Z,4.57
2022-12-11T08:46:27.515Z,4.70
2022-12-11T08:48:55.021Z,4.73
2022-12-11T08:51:23.906Z,4.60
2022-12-11T08:53:51.371Z,4.20
2022-12-11T08:56:20.190Z,5.00
2022-12-11T08:58:47.470Z,4.97
2022-12-11T09:01:16.981Z,4.50
2022-12-11T09:03:43.702Z,4.57
2022-12-11T09:06:16.460Z,4.63
2022-12-11T09:08:51.686Z,4.60
2022-12-11T09:11:24.504Z,4.93
2022-12-11T09:13:51.647Z,5.53
2022-12-11T09:16:21.735Z,4.67
2022-12-11T09:18:50.970Z,5.00
2022-12-11T09:21:20.361Z,5.50
2022-12-11T09:23:47.268Z,4.93
2022-12-11T09:26:16.923Z,5.10
2022-12-11T09:28:46.723Z,5.00
2022-12-11T09:31:18.156Z,5.27
2022-12-11T09:33:45.453Z,5.77
2022-12-11T09:36:12.686Z,5.60
2022-12-11T09:38:39.352Z,5.17
2022-12-11T09:41:20.676Z,5.90
2022-12-11T09:44:01.361Z,5.27
2022-12-11T09:46:33.582Z,4.97
2022-12-11T09:49:03.387Z,5.13
2022-12-11T09:51:47.912Z,5.43
2022-12-11T09:54:15.070Z,5.10
2022-12-11T09:56:58.773Z,5.17
2022-12-11T09:59:48.400Z,4.97
2022-12-11T10:02:22.035Z,5.03
2022-12-11T10:05:31.174Z,6.53
2022-12-11T10:08:10.849Z,5.40
2022-12-11T10:10:46.925Z,6.47
2022-12-11T10:13:37.340Z,5.87
2022-12-11T10:16:29.583Z,5.30
2022-12-11T10:18:57.726Z,5.10
2022-12-11T10:21:25.905Z,5.17
2022-12-11T10:24:01.969Z,5.70
2022-12-11T10:26:29.690Z,5.63
2022-12-11T10:29:00.389Z,5.40
2022-12-11T10:31:43.678Z,5.10
2022-12-11T10:34:19.221Z,5.67
2022-12-11T10:36:45.806Z,5.40
2022-12-11T10:39:14.480Z,6.17
2022-12-11T10:41:44.373Z,6.00
2022-12-11T10:44:19.812Z,5.50
2022-12-11T10:46:49.305Z,5.77
2022-12-11T10:49:24.963Z,5.60
2022-12-11T10:51:54.037Z,5.40
2022-12-11T10:54:35.177Z,5.90
2022-12-11T10:57:03.857Z,5.43
2022-12-11T10:59:50.449Z,6.20
2022-12-11T11:02:23.287Z,5.97
2022-12-11T11:04:50.493Z,5.67
2022-12-11T11:07:21.368Z,5.80
2022-12-11T11:09:48.537Z,5.77
2022-12-11T11:12:26.242Z,6.00
2022-12-11T11:15:04.883Z,5.87
2022-12-11T11:17:35.053Z,6.07
2022-12-11T11:20:14.222Z,5.73
2022-12-11T11:22:46.333Z,5.87
2022-12-11T11:25:21.341Z,5.80
2022-12-11T11:27:55.370Z,5.83
2022-12-11T11:30:25.936Z,5.97
2022-12-11T11:32:56.607Z,6.10
2022-12-11T11:35:27.913Z,6.03
2022-12-11T11:38:18.583Z,6.17
2022-12-11T11:40:58.155Z,6.50
2022-12-11T11:43:48.908Z,6.30
2022-12-11T11:46:23.577Z,6.00
2022-12-11T11:49:12.560Z,6.00
2022-12-11T11:51:46.164Z,6.10
2022-12-11T11:54:36.430Z,7.00
2022-12-11T11:57:14.833Z,6.20
2022-12-11T11:59:52.203Z,5.90
2022-12-11T12:02:19.333Z,6.20
2022-12-11T12:04:47.629Z,6.87
2022-12-11T12:08:01.726Z,6.23
2022-12-11T12:10:59.282Z,6.13
2022-12-11T12:13:55.839Z,6.20
2022-12-11T12:16:53.372Z,6.57
2022-12-11T12:19:45.185Z,6.57
2022-12-11T12:22:27.964Z,6.70
2022-12-11T12:25:19.893Z,6.07
2022-12-11T12:27:53.024Z,6.77
2022-12-11T12:30:23.428Z,5.93
2022-12-11T12:33:20.827Z,6.20
2022-12-11T12:36:05.060Z,6.73
2022-12-11T12:38:43.661Z,6.77
2022-12-11T12:41:32.869Z,7.03
2022-12-11T12:44:13.432Z,6.90
2022-12-11T12:46:43.973Z,5.97
2022-12-11T12:49:16.678Z,5.97
2022-12-11T12:51:44.514Z,6.00
2022-12-11T12:54:17.461Z,5.93
2022-12-11T12:56:46.935Z,6.27
2022-12-11T12:59:39.927Z,6.20
2022-12-11T13:02:16.220Z,6.53
2022-12-11T13:04:56.003Z,6.47
2022-12-11T13:07:29.499Z,6.40
2022-12-11T13:09:57.242Z,7.00
2022-12-11T13:12:32.717Z,6.73
2022-12-11T13:15:00.670Z,6.63
2022-12-11T13:17:38.233Z,6.20
2022-12-11T13:20:17.892Z,6.77
2022-12-11T13:22:59.954Z,6.47
2022-12-11T13:25:29.623Z,6.47
2022-12-11T13:28:26.052Z,5.93
2022-12-11T13:31:01.599Z,6.77
2022-12-11T13:33:30.322Z,6.57
2022-12-11T13:36:31.270Z,6.17
2022-12-11T13:39:18.716Z,5.87
2022-12-11T13:41:53.464Z,6.23
2022-12-11T13:44:41.481Z,6.73
2022-12-11T13:47:13.775Z,6.37
2022-12-11T13:49:43.288Z,6.80
2022-12-11T13:52:22.881Z,6.40
2022-12-11T13:54:52.545Z,6.17
2022-12-11T13:57:22.472Z,6.27
2022-12-11T13:59:53.050Z,6.53
2022-12-11T14:02:38.640Z,6.50
2022-12-11T14:05:08.181Z,5.67
2022-12-11T14:07:38.809Z,6.00
2022-12-11T14:10:14.168Z,6.23
2022-12-11T14:13:11.393Z,6.40
2022-12-11T14:15:43.586Z,6.70
2022-12-11T14:18:20.091Z,7.47
2022-12-11T14:20:54.149Z,6.77
2022-12-11T14:23:29.137Z,6.60
2022-12-11T14:26:04.570Z,7.97
2022-12-11T14:28:38.525Z,6.57
2022-12-11T14:31:06.328Z,6.80
2022-12-11T14:33:40.566Z,6.97
2022-12-11T14:36:08.256Z,6.77
2022-12-11T14:38:47.579Z,7.30
2022-12-11T14:41:29.706Z,6.73
2022-12-11T14:44:00.458Z,6.70
2022-12-11T14:46:45.646Z,6.53
2022-12-11T14:49:24.385Z,6.73
2022-12-11T14:51:53.567Z,7.00
2022-12-11T14:54:31.478Z,6.77
2022-12-11T14:57:00.611Z,5.93
2022-12-11T14:59:32.304Z,6.50
2022-12-11T15:02:02.195Z,6.10
2022-12-11T15:04:33.370Z,6.17
2022-12-11T15:07:00.522Z,6.43
2022-12-11T15:09:36.150Z,6.00
2022-12-11T15:12:13.394Z,6.20
2022-12-11T15:14:57.253Z,6.47
2022-12-11T15:17:25.895Z,6.67
2022-12-11T15:19:56.790Z,5.90
2022-12-11T15:22:32.866Z,6.50
2022-12-11T15:25:00.154Z,5.97
2022-12-11T15:27:39.956Z,6.30
2022-12-11T15:30:28.232Z,5.37
2022-12-11T15:33:09.901Z,5.70
2022-12-11T15:35:38.381Z,6.07
2022-12-11T15:38:05.833Z,6.03
2022-12-11T15:40:32.806Z,5.97
2022-12-11T15:43:03.169Z,6.70
2022-12-11T15:45:29.733Z,6.07
2022-12-11T15:47:57.372Z,5.73
2022-12-11T15:50:26.443Z,5.33
2022-12-11T15:52:54.962Z,7.00
2022-12-11T15:55:23.456Z,5.47
2022-12-11T15:57:59.353Z,5.93
2022-12-11T16:00:28.073Z,5.20
2022-12-11T16:02:55.820Z,5.70
2022-12-11T16:05:22.630Z,5.37
2022-12-11T16:07:52.018Z,5.33
2022-12-11T16:10:20.007Z,5.93
2022-12-11T16:12:46.759Z,5.87
2022-12-11T16:15:21.419Z,5.47
2022-12-11T16:17:49.908Z,5.77
2022-12-11T16:20:16.507Z,5.97
2022-12-11T16:22:43.084Z,5.60
2022-12-11T16:25:09.919Z,5.97
2022-12-11T16:27:36.840Z,5.23
2022-12-11T16:30:04.972Z,5.67
2022-12-11T16:32:31.536Z,6.27
2022-12-11T16:35:00.643Z,5.57
2022-12-11T16:37:27.458Z,6.00
2022-12-11T16:39:54.077Z,6.17
2022-12-11T16:42:20.679Z,5.67
2022-12-11T16:44:47.376Z,5.50
2022-12-11T16:47:13.978Z,6.30
2022-12-11T16:49:42.086Z,5.77
2022-12-11T16:52:09.149Z,5.93
2022-12-11T16:54:35.768Z,5.60
2022-12-11T16:57:02.321Z,5.97
2022-12-11T16:59:31.075Z,5.13
2022-12-11T17:02:00.252Z,5.27
2022-12-11T17:04:28.540Z,5.77
2022-12-11T17:06:55.109Z,5.60
2022-12-11T17:09:22.235Z,5.57
2022-12-11T17:11:48.765Z,5.93
2022-12-11T17:14:15.295Z,5.77
2022-12-11T17:16:41.825Z,6.20
2022-12-11T17:19:09.202Z,6.03
2022-12-11T17:21:35.735Z,5.93
2022-12-11T17:24:02.305Z,5.53
2022-12-11T17:26:29.005Z,5.80
2022-12-11T17:28:57.780Z,6.03
2022-12-11T17:31:24.777Z,5.80
2022-12-11T17:33:53.600Z,5.80
2022-12-11T17:36:21.908Z,5.50
2022-12-11T17:38:49.804Z,5.90
2022-12-11T17:41:20.788Z,5.50
2022-12-11T17:43:52.287Z,5.63
2022-12-11T17:46:20.311Z,5.80
2022-12-11T17:48:48.286Z,5.70
2022-12-11T17:51:24.396Z,5.40
2022-12-11T17:53:52.466Z,4.90
2022-12-11T17:56:19.454Z,5.93
2022-12-11T17:58:46.082Z,5.37
2022-12-11T18:01:13.277Z,5.20
2022-12-11T18:03:41.191Z,6.33
2022-12-11T18:06:10.825Z,5.97
2022-12-11T18:08:37.911Z,5.30
2022-12-11T18:11:15.999Z,5.57
2022-12-11T18:13:43.688Z,5.70
2022-12-11T18:16:16.672Z,5.43
2022-12-11T18:18:43.796Z,5.77
2022-12-11T18:21:21.406Z,5.53
2022-12-11T18:23:50.259Z,6.97
2022-12-11T18:26:18.230Z,6.07
2022-12-11T18:28:46.100Z,6.03
2022-12-11T18:31:13.555Z,5.53
2022-12-11T18:33:42.889Z,6.00
2022-12-11T18:36:10.889Z,5.57
2022-12-11T18:38:37.545Z,5.30
2022-12-11T18:41:06.374Z,5.50
2022-12-11T18:43:33.018Z,5.57
2022-12-11T18:45:59.577Z,5.33
2022-12-11T18:48:26.138Z,5.13
2022-12-11T18:50:52.690Z,5.97
2022-12-11T18:53:19.549Z,5.87
2022-12-11T18:55:48.302Z,4.97
2022-12-11T18:58:18.029Z,5.60
2022-12-11T19:00:45.241Z,5.80
2022-12-11T19:03:13.929Z,5.33
2022-12-11T19:05:43.621Z,5.10
2022-12-11T19:08:12.460Z,4.87
2022-12-11T19:10:44.677Z,5.57
2022-12-11T19:13:11.742Z,5.50
2022-12-11T19:15:40.691Z,5.20
2022-12-11T19:18:07.431Z,5.40
2022-12-11T19:20:48.888Z,5.00
2022-12-11T19:23:16.835Z,5.47
2022-12-11T19:25:47.905Z,5.07
2022-12-11T19:28:15.113Z,4.70
2022-12-11T19:30:47.720Z,5.37
2022-12-11T19:33:15.163Z,5.57
2022-12-11T19:35:42.114Z,4.80
2022-12-11T19:38:08.925Z,5.30
2022-12-11T19:40:40.952Z,5.67
2022-12-11T19:43:07.601Z,4.90
2022-12-11T19:45:34.733Z,5.13
2022-12-11T19:48:01.355Z,5.23
2022-12-11T19:50:28.049Z,5.03
2022-12-11T19:52:54.645Z,5.23
2022-12-11T19:55:21.531Z,4.40
2022-12-11T19:57:48.102Z,4.83
2022-12-11T20:00:15.041Z,4.63
2022-12-11T20:02:41.612Z,4.80
2022-12-11T20:05:09.514Z,5.43
2022-12-11T20:07:36.424Z,5.10
2022-12-11T20:10:03.095Z,5.10
2022-12-11T20:12:30.074Z,5.23
2022-12-11T20:14:56.596Z,5.03
2022-12-11T20:17:23.310Z,5.80
2022-12-11T20:19:50.020Z,4.93
2022-12-11T20:22:16.582Z,4.97
2022-12-11T20:24:43.255Z,4.90
2022-12-11T20:27:09.979Z,5.67
2022-12-11T20:29:37.703Z,5.57
2022-12-11T20:32:05.020Z,5.00
2022-12-11T20:34:31.705Z,4.80
2022-12-11T20:37:00.109Z,5.70
2022-12-11T20:39:26.998Z,4.60
2022-12-11T20:41:53.544Z,5.50
2022-12-11T20:44:20.336Z,5.93
2022-12-11T20:46:46.933Z,5.73
2022-12-11T20:49:13.599Z,5.07
2022-12-11T20:51:40.787Z,5.20
2022-12-11T20:54:08.261Z,5.80
2022-12-11T20:56:34.830Z,5.17
2022-12-11T20:59:01.642Z,4.97
2022-12-11T21:01:31.119Z,4.60
2022-12-11T21:03:59.054Z,5.20
2022-12-11T21:06:31.132Z,5.60
2022-12-11T21:09:03.647Z,5.40
2022-12-11T21:11:30.281Z,5.23
2022-12-11T21:13:56.909Z,5.77
2022-12-11T21:16:24.368Z,4.93
2022-12-11T21:18:51.886Z,5.20
2022-12-11T21:21:18.796Z,5.60
2022-12-11T21:23:45.435Z,4.73
2022-12-11T21:26:13.112Z,4.63
2022-12-11T21:28:40.228Z,5.50
2022-12-11T21:31:11.787Z,5.10
2022-12-11T21:33:38.437Z,4.73
2022-12-11T21:36:06.795Z,5.33
2022-12-11T21:38:33.591Z,5.67
2022-12-11T21:41:08.444Z,5.50
2022-12-11T21:43:43.356Z,4.97
2022-12-11T21:46:26.276Z,5.00
2022-12-11T21:48:53.397Z,5.37
2022-12-11T21:51:28.612Z,6.03
2022-12-11T21:53:57.885Z,5.37
2022-12-11T21:56:27.190Z,5.33
2022-12-11T21:58:54.964Z,4.67
2022-12-11T22:01:31.265Z,5.70
2022-12-11T22:03:59.599Z,5.10
2022-12-11T22:06:26.495Z,5.77
2022-12-11T22:08:53.376Z,5.77
2022-12-11T22:11:22.992Z,4.90
2022-12-11T22:13:49.876Z,5.60
2022-12-11T22:16:16.525Z,5.50
2022-12-11T22:18:43.597Z,5.97
2022-12-11T22:21:10.237Z,5.63
2022-12-11T22:23:38.525Z,5.27
2022-12-11T22:26:06.541Z,6.10
2022-12-11T22:28:33.205Z,5.87
2022-12-11T22:30:59.813Z,5.60
2022-12-11T22:33:26.648Z,6.00
2022-12-11T22:35:57.775Z,5.77
2022-12-11T22:38:25.693Z,5.57
2022-12-11T22:40:53.721Z,5.00
2022-12-11T22:43:20.776Z,6.43
2022-12-11T22:45:47.633Z,5.27
2022-12-11T22:48:14.206Z,5.53
2022-12-11T22:50:41.499Z,6.20
2022-12-11T22:53:08.139Z,5.47
2022-12-11T22:55:38.712Z,5.97
2022-12-11T22:58:05.752Z,5.93
2022-12-11T23:00:32.296Z,5.20
2022-12-11T23:02:58.858Z,5.57
2022-12-11T23:05:25.486Z,5.20
2022-12-11T23:07:52.086Z,6.00
2022-12-11T23:10:19.045Z,5.40
2022-12-11T23:12:45.641Z,5.23
2022-12-11T23:15:12.927Z,5.53
2022-12-11T23:17:39.708Z,5.47
2022-12-11T23:20:07.172Z,5.50
2022-12-11T23:22:34.399Z,5.03
2022-12-11T23:25:01.306Z,5.73
2022-12-11T23:27:28.109Z,5.43
2022-12-11T23:29:55.137Z,5.40
2022-12-11T23:32:21.673Z,4.57
2022-12-11T23:34:48.178Z,5.40
2022-12-11T23:37:15.366Z,4.73
2022-12-11T23:39:41.872Z,5.23
2022-12-11T23:42:09.403Z,5.60
2022-12-11T23:44:36.097Z,5.13
2022-12-11T23:47:02.681Z,5.47
2022-12-11T23:49:29.205Z,5.70
2022-12-11T23:51:56.060Z,4.70
2022-12-11T23:54:22.715Z,5.73
2022-12-11T23:56:49.272Z,5.33
2022-12-11T23:59:15.955Z,5.50
